Burlington, Indiana
Current Conditions -  °F | °C
As of 9:55 PM on Saturday 25 Oct 2014 (Local Time) from KGGP Reporting Station
Clear Clear  
Wind Chill: 59°   Ceiling: Unl
Heat Index: 59°   Visibility: 10mi
Dew Point: 32°   Wind: 7mph
Humidity: 36%   Direction: 290°WNW
Pressure: 29.94"   Gusts: NA
Location:  40.48°N, 86.39°W
Report Text: KGGP 260155Z AUTO 29006KT 10SM CLR 15/00 A2994 RMK AO2
Loading
Personal Weather Stations






























Interactive Weather Map New forecast layout! Learn more

10-Day Weather Forecast

Advertisements
Track Severe Weather on mobile